createdAt,value
2023-05-14T00:01:47.029Z,9.18
2023-05-14T00:11:48.864Z,8.85
2023-05-14T00:21:50.785Z,8.57
2023-05-14T00:31:53.361Z,10.52
2023-05-14T00:41:55.337Z,10.35
2023-05-14T00:51:57.996Z,9.05
2023-05-14T01:01:59.987Z,10.77
2023-05-14T01:12:18.373Z,10.48
2023-05-14T01:22:20.442Z,11.25
2023-05-14T01:32:24.537Z,9.85
2023-05-14T01:42:27.033Z,10.27
2023-05-14T01:52:28.997Z,10.15
2023-05-14T02:02:30.938Z,12.68
2023-05-14T02:12:33.354Z,11.15
2023-05-14T02:22:35.812Z,14.57
2023-05-14T02:32:37.864Z,10.88
2023-05-14T02:42:39.785Z,13.35
2023-05-14T02:52:41.683Z,11.57
2023-05-14T03:02:43.731Z,13.38
2023-05-14T03:12:47.093Z,12.23
2023-05-14T03:22:49.304Z,12.95
2023-05-14T03:32:51.157Z,13.25
2023-05-14T03:42:52.974Z,14.90
2023-05-14T03:52:54.917Z,15.20
2023-05-14T04:02:57.563Z,11.00
2023-05-14T04:12:59.535Z,12.70
2023-05-14T04:23:06.389Z,12.27
2023-05-14T04:33:08.294Z,13.80
2023-05-14T04:43:10.169Z,12.25
2023-05-14T04:53:12.101Z,11.82
2023-05-14T05:03:14.028Z,14.35
2023-05-14T05:13:16.013Z,18.10
2023-05-14T05:23:17.942Z,14.93
2023-05-14T05:33:19.880Z,18.40
2023-05-14T05:43:21.882Z,16.00
2023-05-14T05:53:23.976Z,14.60
2023-05-14T06:03:25.998Z,14.73
2023-05-14T06:13:27.997Z,13.43
2023-05-14T06:23:30.653Z,14.40
2023-05-14T06:33:32.483Z,12.38
2023-05-14T06:43:34.456Z,12.23
2023-05-14T06:53:36.332Z,10.35
2023-05-14T07:03:38.164Z,10.85
2023-05-14T07:13:40.599Z,11.32
2023-05-14T07:23:42.556Z,9.65
2023-05-14T07:33:44.375Z,7.63
2023-05-14T07:43:46.277Z,9.20
2023-05-14T07:53:48.153Z,9.95
2023-05-14T08:03:50.595Z,7.43
2023-05-14T08:13:52.576Z,6.30
2023-05-14T08:23:54.479Z,5.32
2023-05-14T08:33:56.627Z,5.47
2023-05-14T08:44:18.312Z,8.13
2023-05-14T08:54:20.935Z,7.43
2023-05-14T09:04:24.753Z,6.53
2023-05-14T09:14:27.235Z,6.03
2023-05-14T09:24:29.064Z,5.70
2023-05-14T09:34:35.395Z,5.07
2023-05-14T09:44:37.338Z,4.32
2023-05-14T09:54:39.961Z,4.50
2023-05-14T10:04:43.015Z,6.05
2023-05-14T10:14:48.046Z,5.22
2023-05-14T10:24:51.025Z,5.22
2023-05-14T10:34:54.059Z,5.75
2023-05-14T10:45:01.947Z,5.70
2023-05-14T10:55:07.392Z,3.63
2023-05-14T11:05:11.494Z,5.47
2023-05-14T11:15:22.384Z,4.97
2023-05-14T11:25:24.263Z,5.32
2023-05-14T11:35:26.199Z,4.90
2023-05-14T11:45:28.338Z,3.08
2023-05-14T11:55:30.371Z,4.20
2023-05-14T12:05:32.201Z,4.95
2023-05-14T12:15:34.108Z,4.95
2023-05-14T12:25:37.953Z,3.95
2023-05-14T12:35:41.425Z,3.83
2023-05-14T12:45:43.419Z,6.93
2023-05-14T12:55:45.203Z,5.05
2023-05-14T13:05:47.150Z,3.55
2023-05-14T13:15:49.440Z,2.85
2023-05-14T13:25:51.330Z,2.95
2023-05-14T13:35:53.188Z,2.40
2023-05-14T13:45:55.450Z,3.17
2023-05-14T13:55:57.290Z,4.00
2023-05-14T14:05:59.168Z,4.55
2023-05-14T14:16:01.037Z,3.55
2023-05-14T14:26:02.925Z,3.30
2023-05-14T14:36:05.542Z,3.92
2023-05-14T14:46:07.456Z,3.70
2023-05-14T14:56:09.448Z,3.65
2023-05-14T15:06:11.589Z,6.38
2023-05-14T15:16:13.844Z,4.28
2023-05-14T15:26:15.687Z,4.15
2023-05-14T15:36:17.626Z,3.45
2023-05-14T15:46:19.598Z,3.50
2023-05-14T15:56:22.493Z,3.92
2023-05-14T16:06:25.218Z,3.63
2023-05-14T16:16:27.141Z,3.45
2023-05-14T16:26:29.021Z,5.60
2023-05-14T16:36:31.185Z,12.68
2023-05-14T16:46:33.403Z,6.10
2023-05-14T16:56:35.950Z,9.68
2023-05-14T17:06:37.745Z,10.90
2023-05-14T17:16:39.604Z,20.13
2023-05-14T17:26:41.431Z,6.88
2023-05-14T17:36:43.832Z,5.78
2023-05-14T17:46:46.176Z,12.57
2023-05-14T17:56:49.362Z,10.73
2023-05-14T18:06:51.259Z,9.75
2023-05-14T18:16:54.082Z,12.07
2023-05-14T18:26:55.967Z,12.35
2023-05-14T18:36:58.271Z,12.32
2023-05-14T18:47:00.197Z,8.30
2023-05-14T18:57:02.289Z,11.13
2023-05-14T19:07:04.249Z,11.02
2023-05-14T19:17:06.178Z,12.98
2023-05-14T19:27:08.580Z,17.63
2023-05-14T19:37:10.500Z,19.98
2023-05-14T19:47:12.498Z,22.48
2023-05-14T19:57:14.412Z,26.80
2023-05-14T20:07:16.340Z,20.67
2023-05-14T20:17:18.292Z,17.75
2023-05-14T20:27:20.412Z,26.50
2023-05-14T20:37:22.318Z,20.15
2023-05-14T20:47:25.488Z,13.27
2023-05-14T20:57:27.498Z,10.68
2023-05-14T21:07:29.383Z,8.27
2023-05-14T21:17:31.474Z,7.10
2023-05-14T21:27:33.697Z,7.70
2023-05-14T21:37:36.288Z,10.40
2023-05-14T21:47:38.312Z,11.25
2023-05-14T21:57:40.895Z,10.75
2023-05-14T22:07:42.779Z,10.00
2023-05-14T22:17:45.089Z,10.48
2023-05-14T22:27:46.904Z,9.13
2023-05-14T22:37:48.789Z,13.52
2023-05-14T22:47:50.649Z,12.32
2023-05-14T22:57:52.562Z,13.73
2023-05-14T23:07:54.513Z,12.27
2023-05-14T23:17:57.144Z,13.85
2023-05-14T23:27:59.077Z,13.77
2023-05-14T23:38:01.100Z,14.55
2023-05-14T23:48:03.206Z,15.18
2023-05-14T23:58:05.101Z,15.15
